sensor_id;sensor_type;location;lat;lon;timestamp;pressure;altitude;pressure_sealevel;temperature;humidity
51067;BME280;37112;45.892;-123.962;2023-04-03T00:01:48;101386.21;;;7.76;73.59
51067;BME280;37112;45.892;-123.962;2023-04-03T00:03:58;101382.97;;;7.81;72.13
51067;BME280;37112;45.892;-123.962;2023-04-03T00:06:09;101384.04;;;7.89;72.97
51067;BME280;37112;45.892;-123.962;2023-04-03T00:08:20;101381.97;;;7.95;72.17
51067;BME280;37112;45.892;-123.962;2023-04-03T00:10:30;101387.13;;;7.87;70.94
51067;BME280;37112;45.892;-123.962;2023-04-03T00:12:40;101383.59;;;7.71;71.07
51067;BME280;37112;45.892;-123.962;2023-04-03T00:14:50;101385.88;;;7.64;71.13
51067;BME280;37112;45.892;-123.962;2023-04-03T00:17:00;101387.66;;;7.47;70.33
51067;BME280;37112;45.892;-123.962;2023-04-03T00:19:10;101395.58;;;7.36;70.91
51067;BME280;37112;45.892;-123.962;2023-04-03T00:21:20;101395.88;;;7.25;70.53
51067;BME280;37112;45.892;-123.962;2023-04-03T00:23:30;101395.56;;;7.12;70.58
51067;BME280;37112;45.892;-123.962;2023-04-03T00:25:41;101394.95;;;7.01;71.11
51067;BME280;37112;45.892;-123.962;2023-04-03T00:27:51;101400.51;;;6.95;71.35
51067;BME280;37112;45.892;-123.962;2023-04-03T00:30:02;101400.90;;;6.90;71.61
51067;BME280;37112;45.892;-123.962;2023-04-03T00:32:12;101399.13;;;6.86;71.86
51067;BME280;37112;45.892;-123.962;2023-04-03T00:34:22;101396.00;;;6.80;71.58
51067;BME280;37112;45.892;-123.962;2023-04-03T00:36:32;101392.70;;;6.75;71.38
51067;BME280;37112;45.892;-123.962;2023-04-03T00:38:42;101387.98;;;6.73;71.92
51067;BME280;37112;45.892;-123.962;2023-04-03T00:40:52;101384.83;;;6.73;72.23
51067;BME280;37112;45.892;-123.962;2023-04-03T00:43:05;101384.55;;;6.71;71.99
51067;BME280;37112;45.892;-123.962;2023-04-03T00:45:34;101390.23;;;6.70;72.53
51067;BME280;37112;45.892;-123.962;2023-04-03T00:47:45;101387.95;;;6.70;72.50
51067;BME280;37112;45.892;-123.962;2023-04-03T00:49:55;101387.48;;;6.68;72.39
51067;BME280;37112;45.892;-123.962;2023-04-03T00:52:07;101389.71;;;6.65;72.36
51067;BME280;37112;45.892;-123.962;2023-04-03T00:54:18;101396.06;;;6.57;71.89
51067;BME280;37112;45.892;-123.962;2023-04-03T00:56:29;101396.41;;;6.49;72.43
51067;BME280;37112;45.892;-123.962;2023-04-03T00:58:42;101393.57;;;6.40;72.76
51067;BME280;37112;45.892;-123.962;2023-04-03T01:00:56;101388.70;;;6.29;72.86
51067;BME280;37112;45.892;-123.962;2023-04-03T01:03:07;101384.30;;;6.25;73.19
51067;BME280;37112;45.892;-123.962;2023-04-03T01:05:19;101390.20;;;6.22;73.45
51067;BME280;37112;45.892;-123.962;2023-04-03T01:07:31;101394.08;;;6.18;74.77
51067;BME280;37112;45.892;-123.962;2023-04-03T01:09:43;101392.73;;;6.06;75.59
51067;BME280;37112;45.892;-123.962;2023-04-03T01:11:54;101402.50;;;5.91;76.07
51067;BME280;37112;45.892;-123.962;2023-04-03T01:14:22;101404.17;;;5.73;75.45
51067;BME280;37112;45.892;-123.962;2023-04-03T01:16:32;101411.25;;;5.57;75.18
51067;BME280;37112;45.892;-123.962;2023-04-03T01:18:44;101409.23;;;5.45;75.64
51067;BME280;37112;45.892;-123.962;2023-04-03T01:21:14;101417.28;;;5.37;76.16
51067;BME280;37112;45.892;-123.962;2023-04-03T01:23:41;101426.64;;;5.20;76.05
51067;BME280;37112;45.892;-123.962;2023-04-03T01:25:57;101430.36;;;5.09;76.36
51067;BME280;37112;45.892;-123.962;2023-04-03T01:28:10;101424.02;;;5.04;76.10
51067;BME280;37112;45.892;-123.962;2023-04-03T01:30:21;101425.61;;;5.03;76.16
51067;BME280;37112;45.892;-123.962;2023-04-03T01:32:34;101419.78;;;5.10;76.76
51067;BME280;37112;45.892;-123.962;2023-04-03T01:34:45;101417.49;;;5.20;77.03
51067;BME280;37112;45.892;-123.962;2023-04-03T01:36:55;101420.67;;;5.30;77.11
51067;BME280;37112;45.892;-123.962;2023-04-03T01:39:05;101418.81;;;5.39;76.98
51067;BME280;37112;45.892;-123.962;2023-04-03T01:41:16;101419.91;;;5.42;76.53
51067;BME280;37112;45.892;-123.962;2023-04-03T01:43:27;101423.69;;;5.50;76.84
51067;BME280;37112;45.892;-123.962;2023-04-03T01:45:37;101420.20;;;5.53;76.50
51067;BME280;37112;45.892;-123.962;2023-04-03T01:47:48;101416.69;;;5.58;76.42
51067;BME280;37112;45.892;-123.962;2023-04-03T01:49:58;101415.27;;;5.64;76.47
51067;BME280;37112;45.892;-123.962;2023-04-03T01:52:10;101412.50;;;5.67;76.24
51067;BME280;37112;45.892;-123.962;2023-04-03T01:54:20;101415.45;;;5.69;75.76
51067;BME280;37112;45.892;-123.962;2023-04-03T01:56:30;101413.17;;;5.68;75.49
51067;BME280;37112;45.892;-123.962;2023-04-03T01:58:40;101413.90;;;5.67;75.55
51067;BME280;37112;45.892;-123.962;2023-04-03T02:00:50;101412.13;;;5.68;75.82
51067;BME280;37112;45.892;-123.962;2023-04-03T02:03:00;101412.89;;;5.71;76.05
51067;BME280;37112;45.892;-123.962;2023-04-03T02:05:12;101410.07;;;5.71;75.63
51067;BME280;37112;45.892;-123.962;2023-04-03T02:07:21;101410.63;;;5.71;75.48
51067;BME280;37112;45.892;-123.962;2023-04-03T02:09:31;101410.61;;;5.71;75.29
51067;BME280;37112;45.892;-123.962;2023-04-03T02:11:42;101409.69;;;5.72;75.59
51067;BME280;37112;45.892;-123.962;2023-04-03T02:13:53;101408.69;;;5.75;75.75
51067;BME280;37112;45.892;-123.962;2023-04-03T02:16:09;101405.13;;;5.76;75.64
51067;BME280;37112;45.892;-123.962;2023-04-03T02:18:21;101404.00;;;5.78;75.80
51067;BME280;37112;45.892;-123.962;2023-04-03T02:20:31;101402.17;;;5.80;75.82
51067;BME280;37112;45.892;-123.962;2023-04-03T02:22:42;101401.16;;;5.79;75.25
51067;BME280;37112;45.892;-123.962;2023-04-03T02:24:52;101400.30;;;5.73;74.35
51067;BME280;37112;45.892;-123.962;2023-04-03T02:27:01;101398.14;;;5.70;74.59
51067;BME280;37112;45.892;-123.962;2023-04-03T02:29:11;101405.92;;;5.69;74.26
51067;BME280;37112;45.892;-123.962;2023-04-03T02:31:21;101404.71;;;5.68;74.12
51067;BME280;37112;45.892;-123.962;2023-04-03T02:33:32;101411.45;;;5.67;74.05
51067;BME280;37112;45.892;-123.962;2023-04-03T02:35:43;101410.80;;;5.65;73.90
51067;BME280;37112;45.892;-123.962;2023-04-03T02:38:01;101414.91;;;5.64;74.23
51067;BME280;37112;45.892;-123.962;2023-04-03T02:40:12;101415.77;;;5.65;74.31
51067;BME280;37112;45.892;-123.962;2023-04-03T02:42:21;101415.45;;;5.64;74.05
51067;BME280;37112;45.892;-123.962;2023-04-03T02:44:32;101415.34;;;5.62;73.92
51067;BME280;37112;45.892;-123.962;2023-04-03T02:46:42;101414.84;;;5.61;73.93
51067;BME280;37112;45.892;-123.962;2023-04-03T02:48:53;101413.44;;;5.61;74.19
51067;BME280;37112;45.892;-123.962;2023-04-03T02:51:03;101420.95;;;5.62;74.13
51067;BME280;37112;45.892;-123.962;2023-04-03T02:53:13;101433.84;;;5.56;72.98
51067;BME280;37112;45.892;-123.962;2023-04-03T02:55:23;101433.10;;;5.47;73.64
51067;BME280;37112;45.892;-123.962;2023-04-03T02:57:35;101433.63;;;5.38;73.97
51067;BME280;37112;45.892;-123.962;2023-04-03T02:59:45;101433.23;;;5.34;74.19
51067;BME280;37112;45.892;-123.962;2023-04-03T03:01:54;101432.91;;;5.27;74.06
51067;BME280;37112;45.892;-123.962;2023-04-03T03:04:05;101428.64;;;5.19;73.52
51067;BME280;37112;45.892;-123.962;2023-04-03T03:06:16;101427.02;;;5.09;73.68
51067;BME280;37112;45.892;-123.962;2023-04-03T03:08:26;101424.20;;;5.04;73.74
51067;BME280;37112;45.892;-123.962;2023-04-03T03:10:36;101426.02;;;5.02;73.95
51067;BME280;37112;45.892;-123.962;2023-04-03T03:12:47;101427.30;;;5.01;74.03
51067;BME280;37112;45.892;-123.962;2023-04-03T03:14:57;101427.54;;;4.99;74.07
51067;BME280;37112;45.892;-123.962;2023-04-03T03:17:07;101432.95;;;5.00;74.23
51067;BME280;37112;45.892;-123.962;2023-04-03T03:19:18;101434.30;;;5.02;74.49
51067;BME280;37112;45.892;-123.962;2023-04-03T03:21:29;101433.22;;;5.02;74.56
51067;BME280;37112;45.892;-123.962;2023-04-03T03:23:39;101432.34;;;5.02;74.57
51067;BME280;37112;45.892;-123.962;2023-04-03T03:25:49;101443.09;;;5.02;74.88
51067;BME280;37112;45.892;-123.962;2023-04-03T03:27:59;101453.19;;;5.00;74.58
51067;BME280;37112;45.892;-123.962;2023-04-03T03:30:10;101446.26;;;4.97;74.82
51067;BME280;37112;45.892;-123.962;2023-04-03T03:32:20;101459.18;;;4.94;75.91
51067;BME280;37112;45.892;-123.962;2023-04-03T03:34:30;101463.02;;;4.95;76.06
51067;BME280;37112;45.892;-123.962;2023-04-03T03:36:41;101460.48;;;4.98;77.22
51067;BME280;37112;45.892;-123.962;2023-04-03T03:38:51;101467.48;;;5.05;77.57
51067;BME280;37112;45.892;-123.962;2023-04-03T03:41:01;101474.80;;;5.12;77.92
51067;BME280;37112;45.892;-123.962;2023-04-03T03:43:12;101476.45;;;5.16;77.68
51067;BME280;37112;45.892;-123.962;2023-04-03T03:45:23;101479.54;;;5.18;77.79
51067;BME280;37112;45.892;-123.962;2023-04-03T03:47:33;101482.42;;;5.21;77.42
51067;BME280;37112;45.892;-123.962;2023-04-03T03:49:44;101484.79;;;5.24;77.26
51067;BME280;37112;45.892;-123.962;2023-04-03T03:51:54;101486.89;;;5.24;77.02
51067;BME280;37112;45.892;-123.962;2023-04-03T03:54:05;101488.09;;;5.25;76.64
51067;BME280;37112;45.892;-123.962;2023-04-03T03:56:16;101492.33;;;5.25;76.42
51067;BME280;37112;45.892;-123.962;2023-04-03T03:58:26;101493.16;;;5.26;76.83
51067;BME280;37112;45.892;-123.962;2023-04-03T04:00:37;101499.45;;;5.28;76.57
51067;BME280;37112;45.892;-123.962;2023-04-03T04:02:47;101500.70;;;5.27;76.25
51067;BME280;37112;45.892;-123.962;2023-04-03T04:05:02;101503.05;;;5.25;75.75
51067;BME280;37112;45.892;-123.962;2023-04-03T04:07:12;101502.04;;;5.24;75.79
51067;BME280;37112;45.892;-123.962;2023-04-03T04:09:22;101503.45;;;5.24;75.62
51067;BME280;37112;45.892;-123.962;2023-04-03T04:11:33;101506.09;;;5.24;75.81
51067;BME280;37112;45.892;-123.962;2023-04-03T04:13:43;101506.04;;;5.26;75.78
51067;BME280;37112;45.892;-123.962;2023-04-03T04:15:53;101510.59;;;5.26;75.70
51067;BME280;37112;45.892;-123.962;2023-04-03T04:18:04;101509.68;;;5.27;75.41
51067;BME280;37112;45.892;-123.962;2023-04-03T04:20:14;101509.55;;;5.26;75.31
51067;BME280;37112;45.892;-123.962;2023-04-03T04:22:25;101512.98;;;5.29;75.45
51067;BME280;37112;45.892;-123.962;2023-04-03T04:24:34;101511.73;;;5.29;74.91
51067;BME280;37112;45.892;-123.962;2023-04-03T04:26:47;101514.20;;;5.29;74.93
51067;BME280;37112;45.892;-123.962;2023-04-03T04:28:57;101515.20;;;5.31;75.25
51067;BME280;37112;45.892;-123.962;2023-04-03T04:31:07;101518.77;;;5.30;74.75
51067;BME280;37112;45.892;-123.962;2023-04-03T04:33:17;101516.60;;;5.31;75.22
51067;BME280;37112;45.892;-123.962;2023-04-03T04:35:27;101511.79;;;5.34;75.16
51067;BME280;37112;45.892;-123.962;2023-04-03T04:37:38;101511.24;;;5.34;75.18
51067;BME280;37112;45.892;-123.962;2023-04-03T04:39:48;101511.95;;;5.34;75.08
51067;BME280;37112;45.892;-123.962;2023-04-03T04:41:58;101511.04;;;5.35;75.27
51067;BME280;37112;45.892;-123.962;2023-04-03T04:44:09;101508.98;;;5.33;75.20
51067;BME280;37112;45.892;-123.962;2023-04-03T04:46:19;101509.85;;;5.28;74.82
51067;BME280;37112;45.892;-123.962;2023-04-03T04:48:33;101511.11;;;5.22;74.77
51067;BME280;37112;45.892;-123.962;2023-04-03T04:50:44;101513.05;;;5.16;74.82
51067;BME280;37112;45.892;-123.962;2023-04-03T04:52:54;101500.55;;;5.11;74.98
51067;BME280;37112;45.892;-123.962;2023-04-03T04:55:05;101505.48;;;5.05;75.22
51067;BME280;37112;45.892;-123.962;2023-04-03T04:57:15;101503.35;;;5.00;75.32
51067;BME280;37112;45.892;-123.962;2023-04-03T04:59:25;101505.95;;;4.96;75.34
51067;BME280;37112;45.892;-123.962;2023-04-03T05:01:37;101509.23;;;4.93;75.59
51067;BME280;37112;45.892;-123.962;2023-04-03T05:03:51;101511.95;;;4.90;75.79
51067;BME280;37112;45.892;-123.962;2023-04-03T05:06:02;101514.17;;;4.87;75.76
51067;BME280;37112;45.892;-123.962;2023-04-03T05:08:13;101510.50;;;4.80;75.73
51067;BME280;37112;45.892;-123.962;2023-04-03T05:10:23;101503.50;;;4.73;75.64
51067;BME280;37112;45.892;-123.962;2023-04-03T05:12:34;101511.08;;;4.67;75.86
51067;BME280;37112;45.892;-123.962;2023-04-03T05:14:44;101524.73;;;4.63;75.94
51067;BME280;37112;45.892;-123.962;2023-04-03T05:16:55;101533.92;;;4.62;76.14
51067;BME280;37112;45.892;-123.962;2023-04-03T05:19:08;101537.87;;;4.60;76.39
51067;BME280;37112;45.892;-123.962;2023-04-03T05:21:18;101545.84;;;4.57;76.63
51067;BME280;37112;45.892;-123.962;2023-04-03T05:23:31;101541.63;;;4.51;76.81
51067;BME280;37112;45.892;-123.962;2023-04-03T05:25:42;101549.38;;;4.45;77.05
51067;BME280;37112;45.892;-123.962;2023-04-03T05:27:54;101549.38;;;4.38;77.16
51067;BME280;37112;45.892;-123.962;2023-04-03T05:30:05;101553.17;;;4.35;77.23
51067;BME280;37112;45.892;-123.962;2023-04-03T05:32:16;101550.48;;;4.31;77.31
51067;BME280;37112;45.892;-123.962;2023-04-03T05:34:27;101550.29;;;4.32;77.52
51067;BME280;37112;45.892;-123.962;2023-04-03T05:36:37;101552.56;;;4.32;77.54
51067;BME280;37112;45.892;-123.962;2023-04-03T05:38:47;101548.55;;;4.31;77.69
51067;BME280;37112;45.892;-123.962;2023-04-03T05:40:58;101554.54;;;4.30;77.73
51067;BME280;37112;45.892;-123.962;2023-04-03T05:43:09;101552.48;;;4.28;77.63
51067;BME280;37112;45.892;-123.962;2023-04-03T05:45:20;101555.36;;;4.26;77.46
51067;BME280;37112;45.892;-123.962;2023-04-03T05:47:31;101555.97;;;4.23;77.43
51067;BME280;37112;45.892;-123.962;2023-04-03T05:49:42;101550.80;;;4.20;77.37
51067;BME280;37112;45.892;-123.962;2023-04-03T05:51:54;101552.80;;;4.16;77.51
51067;BME280;37112;45.892;-123.962;2023-04-03T05:54:12;101550.09;;;4.13;77.52
51067;BME280;37112;45.892;-123.962;2023-04-03T05:56:23;101547.20;;;4.10;77.69
51067;BME280;37112;45.892;-123.962;2023-04-03T05:58:33;101548.55;;;4.05;77.65
51067;BME280;37112;45.892;-123.962;2023-04-03T06:00:43;101547.84;;;3.99;77.55
51067;BME280;37112;45.892;-123.962;2023-04-03T06:02:53;101547.93;;;3.95;77.79
51067;BME280;37112;45.892;-123.962;2023-04-03T06:05:04;101547.50;;;3.92;78.12
51067;BME280;37112;45.892;-123.962;2023-04-03T06:07:16;101544.06;;;3.89;78.17
51067;BME280;37112;45.892;-123.962;2023-04-03T06:09:29;101543.58;;;3.87;78.25
51067;BME280;37112;45.892;-123.962;2023-04-03T06:11:39;101543.82;;;3.85;78.44
51067;BME280;37112;45.892;-123.962;2023-04-03T06:13:50;101544.73;;;3.84;78.43
51067;BME280;37112;45.892;-123.962;2023-04-03T06:16:00;101542.16;;;3.81;78.61
51067;BME280;37112;45.892;-123.962;2023-04-03T06:18:10;101551.34;;;3.80;78.69
51067;BME280;37112;45.892;-123.962;2023-04-03T06:20:20;101562.68;;;3.76;78.65
51067;BME280;37112;45.892;-123.962;2023-04-03T06:22:30;101572.88;;;3.76;78.98
51067;BME280;37112;45.892;-123.962;2023-04-03T06:24:41;101570.63;;;3.75;78.98
51067;BME280;37112;45.892;-123.962;2023-04-03T06:26:51;101576.20;;;3.77;79.53
51067;BME280;37112;45.892;-123.962;2023-04-03T06:29:02;101568.77;;;3.78;80.06
51067;BME280;37112;45.892;-123.962;2023-04-03T06:31:12;101569.77;;;3.80;80.11
51067;BME280;37112;45.892;-123.962;2023-04-03T06:33:21;101571.14;;;3.82;80.05
51067;BME280;37112;45.892;-123.962;2023-04-03T06:35:31;101570.38;;;3.84;80.17
51067;BME280;37112;45.892;-123.962;2023-04-03T06:37:43;101567.15;;;3.86;80.37
51067;BME280;37112;45.892;-123.962;2023-04-03T06:39:53;101572.37;;;3.88;80.23
51067;BME280;37112;45.892;-123.962;2023-04-03T06:42:03;101577.23;;;3.91;80.29
51067;BME280;37112;45.892;-123.962;2023-04-03T06:44:17;101578.91;;;3.94;80.36
51067;BME280;37112;45.892;-123.962;2023-04-03T06:46:27;101581.51;;;3.95;80.41
51067;BME280;37112;45.892;-123.962;2023-04-03T06:48:38;101580.08;;;3.96;80.38
51067;BME280;37112;45.892;-123.962;2023-04-03T06:50:49;101582.70;;;3.96;80.36
51067;BME280;37112;45.892;-123.962;2023-04-03T06:52:59;101585.13;;;3.98;80.35
51067;BME280;37112;45.892;-123.962;2023-04-03T06:55:11;101584.27;;;3.98;80.24
51067;BME280;37112;45.892;-123.962;2023-04-03T06:57:20;101583.93;;;3.97;80.15
51067;BME280;37112;45.892;-123.962;2023-04-03T06:59:31;101587.83;;;3.95;80.12
51067;BME280;37112;45.892;-123.962;2023-04-03T07:01:40;101585.75;;;3.94;80.21
51067;BME280;37112;45.892;-123.962;2023-04-03T07:03:51;101585.12;;;3.91;79.96
51067;BME280;37112;45.892;-123.962;2023-04-03T07:06:01;101591.14;;;3.89;79.97
51067;BME280;37112;45.892;-123.962;2023-04-03T07:08:12;101595.25;;;3.87;79.87
51067;BME280;37112;45.892;-123.962;2023-04-03T07:10:22;101598.59;;;3.87;80.07
51067;BME280;37112;45.892;-123.962;2023-04-03T07:12:33;101598.93;;;3.87;80.25
51067;BME280;37112;45.892;-123.962;2023-04-03T07:14:44;101600.65;;;3.88;80.47
51067;BME280;37112;45.892;-123.962;2023-04-03T07:16:54;101604.31;;;3.89;80.58
51067;BME280;37112;45.892;-123.962;2023-04-03T07:19:04;101609.18;;;3.92;80.70
51067;BME280;37112;45.892;-123.962;2023-04-03T07:21:14;101606.16;;;3.93;80.68
51067;BME280;37112;45.892;-123.962;2023-04-03T07:23:24;101606.02;;;3.92;80.77
51067;BME280;37112;45.892;-123.962;2023-04-03T07:25:35;101604.65;;;3.90;80.63
51067;BME280;37112;45.892;-123.962;2023-04-03T07:27:45;101605.36;;;3.90;80.75
51067;BME280;37112;45.892;-123.962;2023-04-03T07:29:56;101608.36;;;3.89;80.68
51067;BME280;37112;45.892;-123.962;2023-04-03T07:32:06;101600.29;;;3.90;80.79
51067;BME280;37112;45.892;-123.962;2023-04-03T07:34:17;101600.45;;;3.89;80.86
51067;BME280;37112;45.892;-123.962;2023-04-03T07:36:26;101601.84;;;3.90;80.95
51067;BME280;37112;45.892;-123.962;2023-04-03T07:38:37;101600.48;;;3.88;80.66
51067;BME280;37112;45.892;-123.962;2023-04-03T07:40:50;101600.19;;;3.86;80.71
51067;BME280;37112;45.892;-123.962;2023-04-03T07:43:00;101608.64;;;3.85;80.79
51067;BME280;37112;45.892;-123.962;2023-04-03T07:45:11;101606.23;;;3.83;80.70
51067;BME280;37112;45.892;-123.962;2023-04-03T07:47:21;101595.58;;;3.81;80.84
51067;BME280;37112;45.892;-123.962;2023-04-03T07:49:31;101593.17;;;3.79;81.08
51067;BME280;37112;45.892;-123.962;2023-04-03T07:51:42;101601.70;;;3.76;80.81
51067;BME280;37112;45.892;-123.962;2023-04-03T07:53:52;101601.40;;;3.73;80.80
51067;BME280;37112;45.892;-123.962;2023-04-03T07:56:02;101603.91;;;3.71;80.92
51067;BME280;37112;45.892;-123.962;2023-04-03T07:58:14;101606.98;;;3.68;80.87
51067;BME280;37112;45.892;-123.962;2023-04-03T08:00:25;101606.15;;;3.66;80.90
51067;BME280;37112;45.892;-123.962;2023-04-03T08:02:35;101611.27;;;3.64;80.94
51067;BME280;37112;45.892;-123.962;2023-04-03T08:04:45;101607.67;;;3.61;80.70
51067;BME280;37112;45.892;-123.962;2023-04-03T08:06:55;101610.23;;;3.57;80.74
51067;BME280;37112;45.892;-123.962;2023-04-03T08:09:05;101611.73;;;3.52;80.77
51067;BME280;37112;45.892;-123.962;2023-04-03T08:11:15;101609.77;;;3.47;80.72
51067;BME280;37112;45.892;-123.962;2023-04-03T08:13:26;101614.41;;;3.44;80.89
51067;BME280;37112;45.892;-123.962;2023-04-03T08:15:37;101612.70;;;3.41;80.96
51067;BME280;37112;45.892;-123.962;2023-04-03T08:17:47;101615.21;;;3.39;80.99
51067;BME280;37112;45.892;-123.962;2023-04-03T08:19:56;101614.77;;;3.37;81.00
51067;BME280;37112;45.892;-123.962;2023-04-03T08:22:06;101619.20;;;3.33;81.13
51067;BME280;37112;45.892;-123.962;2023-04-03T08:24:15;101615.23;;;3.31;81.16
51067;BME280;37112;45.892;-123.962;2023-04-03T08:26:25;101616.67;;;3.30;81.30
51067;BME280;37112;45.892;-123.962;2023-04-03T08:28:36;101616.68;;;3.29;81.44
51067;BME280;37112;45.892;-123.962;2023-04-03T08:30:45;101618.26;;;3.29;81.76
51067;BME280;37112;45.892;-123.962;2023-04-03T08:32:55;101620.40;;;3.28;81.76
51067;BME280;37112;45.892;-123.962;2023-04-03T08:35:05;101615.19;;;3.25;81.81
51067;BME280;37112;45.892;-123.962;2023-04-03T08:37:15;101613.51;;;3.23;81.97
51067;BME280;37112;45.892;-123.962;2023-04-03T08:39:26;101616.69;;;3.21;81.99
51067;BME280;37112;45.892;-123.962;2023-04-03T08:41:37;101621.30;;;3.19;82.07
51067;BME280;37112;45.892;-123.962;2023-04-03T08:43:52;101616.09;;;3.16;82.09
51067;BME280;37112;45.892;-123.962;2023-04-03T08:46:06;101620.69;;;3.15;82.05
51067;BME280;37112;45.892;-123.962;2023-04-03T08:48:22;101621.31;;;3.11;82.19
51067;BME280;37112;45.892;-123.962;2023-04-03T08:50:37;101619.77;;;3.09;82.49
51067;BME280;37112;45.892;-123.962;2023-04-03T08:52:51;101622.07;;;3.08;82.57
51067;BME280;37112;45.892;-123.962;2023-04-03T08:55:03;101628.04;;;3.08;82.62
51067;BME280;37112;45.892;-123.962;2023-04-03T08:57:15;101633.47;;;3.08;82.70
51067;BME280;37112;45.892;-123.962;2023-04-03T08:59:29;101635.92;;;3.08;82.66
51067;BME280;37112;45.892;-123.962;2023-04-03T09:01:42;101638.89;;;3.09;82.88
51067;BME280;37112;45.892;-123.962;2023-04-03T09:03:53;101643.60;;;3.10;83.15
51067;BME280;37112;45.892;-123.962;2023-04-03T09:06:06;101641.13;;;3.11;83.23
51067;BME280;37112;45.892;-123.962;2023-04-03T09:08:22;101644.11;;;3.11;83.17
51067;BME280;37112;45.892;-123.962;2023-04-03T09:10:35;101643.44;;;3.09;82.96
51067;BME280;37112;45.892;-123.962;2023-04-03T09:12:44;101639.27;;;3.07;83.03
51067;BME280;37112;45.892;-123.962;2023-04-03T09:15:02;101638.83;;;3.04;83.10
51067;BME280;37112;45.892;-123.962;2023-04-03T09:17:20;101641.99;;;3.03;83.15
51067;BME280;37112;45.892;-123.962;2023-04-03T09:19:39;101639.19;;;3.03;83.14
51067;BME280;37112;45.892;-123.962;2023-04-03T09:21:52;101633.22;;;3.03;83.31
51067;BME280;37112;45.892;-123.962;2023-04-03T09:24:04;101634.80;;;3.04;83.38
51067;BME280;37112;45.892;-123.962;2023-04-03T09:26:21;101641.80;;;3.05;83.43
51067;BME280;37112;45.892;-123.962;2023-04-03T09:28:37;101648.80;;;3.06;83.50
51067;BME280;37112;45.892;-123.962;2023-04-03T09:30:57;101655.84;;;3.05;83.39
51067;BME280;37112;45.892;-123.962;2023-04-03T09:33:10;101666.02;;;3.05;83.48
51067;BME280;37112;45.892;-123.962;2023-04-03T09:35:24;101670.38;;;3.05;83.62
51067;BME280;37112;45.892;-123.962;2023-04-03T09:37:52;101677.14;;;3.08;83.99
51067;BME280;37112;45.892;-123.962;2023-04-03T09:40:06;101672.17;;;3.11;84.08
51067;BME280;37112;45.892;-123.962;2023-04-03T09:42:20;101671.65;;;3.12;84.02
51067;BME280;37112;45.892;-123.962;2023-04-03T09:44:31;101668.85;;;3.12;84.07
51067;BME280;37112;45.892;-123.962;2023-04-03T09:46:42;101667.96;;;3.12;84.11
51067;BME280;37112;45.892;-123.962;2023-04-03T09:48:55;101661.82;;;3.13;84.09
51067;BME280;37112;45.892;-123.962;2023-04-03T09:51:17;101658.64;;;3.13;84.43
51067;BME280;37112;45.892;-123.962;2023-04-03T09:53:30;101662.96;;;3.16;84.72
51067;BME280;37112;45.892;-123.962;2023-04-03T09:55:45;101669.73;;;3.20;84.88
51067;BME280;37112;45.892;-123.962;2023-04-03T09:57:56;101672.63;;;3.23;84.90
51067;BME280;37112;45.892;-123.962;2023-04-03T10:00:23;101675.37;;;3.27;85.06
51067;BME280;37112;45.892;-123.962;2023-04-03T10:02:37;101677.28;;;3.28;84.82
51067;BME280;37112;45.892;-123.962;2023-04-03T10:04:48;101683.30;;;3.25;84.48
51067;BME280;37112;45.892;-123.962;2023-04-03T10:07:33;101675.99;;;3.22;84.82
51067;BME280;37112;45.892;-123.962;2023-04-03T10:09:56;101672.11;;;3.23;85.12
51067;BME280;37112;45.892;-123.962;2023-04-03T10:12:07;101674.70;;;3.25;85.02
51067;BME280;37112;45.892;-123.962;2023-04-03T10:14:19;101672.90;;;3.26;85.20
51067;BME280;37112;45.892;-123.962;2023-04-03T10:16:34;101669.70;;;3.29;85.24
51067;BME280;37112;45.892;-123.962;2023-04-03T10:18:48;101667.55;;;3.31;85.28
51067;BME280;37112;45.892;-123.962;2023-04-03T10:21:05;101664.86;;;3.33;85.33
51067;BME280;37112;45.892;-123.962;2023-04-03T10:23:31;101655.35;;;3.34;85.33
51067;BME280;37112;45.892;-123.962;2023-04-03T10:25:46;101655.52;;;3.36;85.42
51067;BME280;37112;45.892;-123.962;2023-04-03T10:28:02;101658.13;;;3.37;85.42
51067;BME280;37112;45.892;-123.962;2023-04-03T10:30:24;101654.13;;;3.34;85.23
51067;BME280;37112;45.892;-123.962;2023-04-03T10:32:52;101646.04;;;3.27;84.94
51067;BME280;37112;45.892;-123.962;2023-04-03T10:35:12;101628.61;;;3.22;85.08
51067;BME280;37112;45.892;-123.962;2023-04-03T10:37:27;101630.31;;;3.16;84.97
51067;BME280;37112;45.892;-123.962;2023-04-03T10:39:50;101633.23;;;3.10;85.28
51067;BME280;37112;45.892;-123.962;2023-04-03T10:42:06;101630.56;;;3.05;85.12
51067;BME280;37112;45.892;-123.962;2023-04-03T10:44:34;101631.17;;;3.01;85.10
51067;BME280;37112;45.892;-123.962;2023-04-03T10:46:49;101626.91;;;2.96;84.99
51067;BME280;37112;45.892;-123.962;2023-04-03T10:49:13;101629.73;;;2.94;85.19
51067;BME280;37112;45.892;-123.962;2023-04-03T10:51:31;101626.06;;;2.94;85.34
51067;BME280;37112;45.892;-123.962;2023-04-03T10:53:48;101636.08;;;2.93;85.64
51067;BME280;37112;45.892;-123.962;2023-04-03T10:56:05;101638.01;;;2.93;85.81
51067;BME280;37112;45.892;-123.962;2023-04-03T10:58:24;101636.38;;;2.96;85.93
51067;BME280;37112;45.892;-123.962;2023-04-03T11:00:40;101634.61;;;2.96;85.81
51067;BME280;37112;45.892;-123.962;2023-04-03T11:02:54;101635.67;;;2.96;85.90
51067;BME280;37112;45.892;-123.962;2023-04-03T11:05:13;101640.23;;;2.96;85.88
51067;BME280;37112;45.892;-123.962;2023-04-03T11:07:27;101637.61;;;2.96;85.84
51067;BME280;37112;45.892;-123.962;2023-04-03T11:09:42;101639.36;;;2.95;85.84
51067;BME280;37112;45.892;-123.962;2023-04-03T11:12:00;101646.58;;;2.96;85.81
51067;BME280;37112;45.892;-123.962;2023-04-03T11:14:16;101644.07;;;2.97;86.12